Terminal Aerodrome Forecast
Issued by NWS

Home | Current Version | Previous Version | Text Only | Print | Product List | Glossary On
Versions: 1 2 3 4 5 6 7 8 9 10 11 12 13 14 15 16 17 18 19 20 21 22 23 24 25
000
FTUS46 KLOX 061100
TAFLGB
TAF
KLGB 061128Z 0612/0712 VRB03KT P6SM SCT025 OVC040
     FM061900 18008KT P6SM BKN040
     FM062200 21007KT P6SM SCT040
     FM070100 30008KT P6SM FEW040
     FM070800 VRB03KT P6SM SCT025 OVC040=

USA.gov is the U.S. government's official web portal to all federal, state and local government web resources and services.